CSM4 weather

CLOSED Ste-Julienne Airport
Ste-Julienne, Quebec, Canada

Public forecast

Using degrees Celsius for public forecast. Weather courtesy of forecast.io.

Closest aviation weather report (METAR) to Ste-Julienne Airport

Closest report is Montreal International (Mirabel) Airport, 20.5 nm (37.9 km) SW. Retrieved 2020/08/06 00:00 UTC (28 minutes ago):

CYMX 060000Z 22005KT 45SM FEW045 SCT054 SCT085 19/13 A2994 RMK CU1SC2AC1 SLP142 DENSITY ALT 800FT

Closest aviation forecast (TAF) to Ste-Julienne Airport

Closest forecast is Montreal International (Mirabel) Airport, 20.5 nm (37.9 km) SW. Retrieved 2020-08-06 00:42 UTC (0 seconds ago):

TAF CYMX 052338Z 0600/0624 25006KT P6SM BKN040 BKN090 TEMPO 0600/0604 P6SM -SHRA FM060400 VRB03KT P6SM SKC FM061400 24008G18KT P6SM SCT040 TEMPO 0614/0624 BKN040 RMK NXT FCST BY 060600Z